sensor_id;sensor_type;location;lat;lon;timestamp;temperature;humidity
4727;DHT22;2377;51.734;8.950;2023-12-04T00:01:28;-1.40;1.00
4727;DHT22;2377;51.734;8.950;2023-12-04T00:03:55;-1.40;1.00
4727;DHT22;2377;51.734;8.950;2023-12-04T00:06:23;-1.40;1.00
4727;DHT22;2377;51.734;8.950;2023-12-04T00:08:50;-1.50;1.00
4727;DHT22;2377;51.734;8.950;2023-12-04T00:11:19;-1.50;1.00
4727;DHT22;2377;51.734;8.950;2023-12-04T00:13:46;-1.50;1.00
4727;DHT22;2377;51.734;8.950;2023-12-04T00:16:13;-1.50;1.00
4727;DHT22;2377;51.734;8.950;2023-12-04T00:18:40;-1.50;1.00
4727;DHT22;2377;51.734;8.950;2023-12-04T00:21:07;-1.50;1.00
4727;DHT22;2377;51.734;8.950;2023-12-04T00:23:34;-1.50;1.00
4727;DHT22;2377;51.734;8.950;2023-12-04T00:26:01;-1.50;1.00
4727;DHT22;2377;51.734;8.950;2023-12-04T00:28:30;-1.50;1.00
4727;DHT22;2377;51.734;8.950;2023-12-04T00:30:58;-1.50;1.00
4727;DHT22;2377;51.734;8.950;2023-12-04T00:33:25;-1.50;1.00
4727;DHT22;2377;51.734;8.950;2023-12-04T00:35:52;-1.50;1.00
4727;DHT22;2377;51.734;8.950;2023-12-04T00:38:19;-1.50;1.00
4727;DHT22;2377;51.734;8.950;2023-12-04T00:40:46;-1.50;1.00
4727;DHT22;2377;51.734;8.950;2023-12-04T00:43:13;-1.50;1.00
4727;DHT22;2377;51.734;8.950;2023-12-04T00:45:42;-1.50;1.00
4727;DHT22;2377;51.734;8.950;2023-12-04T00:48:09;-1.50;1.00
4727;DHT22;2377;51.734;8.950;2023-12-04T00:50:36;-1.50;1.00
4727;DHT22;2377;51.734;8.950;2023-12-04T00:53:03;-1.50;1.00
4727;DHT22;2377;51.734;8.950;2023-12-04T00:55:30;-1.50;1.00
4727;DHT22;2377;51.734;8.950;2023-12-04T00:57:57;-1.50;1.00
4727;DHT22;2377;51.734;8.950;2023-12-04T01:00:24;-1.50;1.00
4727;DHT22;2377;51.734;8.950;2023-12-04T01:02:53;-1.50;1.00
4727;DHT22;2377;51.734;8.950;2023-12-04T01:05:20;-1.50;1.00
4727;DHT22;2377;51.734;8.950;2023-12-04T01:07:47;-1.50;1.00
4727;DHT22;2377;51.734;8.950;2023-12-04T01:10:14;-1.50;1.00
4727;DHT22;2377;51.734;8.950;2023-12-04T01:12:41;-1.50;1.00
4727;DHT22;2377;51.734;8.950;2023-12-04T01:15:08;-1.50;1.00
4727;DHT22;2377;51.734;8.950;2023-12-04T01:17:36;-1.50;1.00
4727;DHT22;2377;51.734;8.950;2023-12-04T01:20:05;-1.50;1.00
4727;DHT22;2377;51.734;8.950;2023-12-04T01:22:33;-1.50;1.00
4727;DHT22;2377;51.734;8.950;2023-12-04T01:25:00;-1.50;1.00
4727;DHT22;2377;51.734;8.950;2023-12-04T01:27:28;-1.50;1.00
4727;DHT22;2377;51.734;8.950;2023-12-04T01:29:55;-1.50;1.00
4727;DHT22;2377;51.734;8.950;2023-12-04T01:32:22;-1.50;1.00
4727;DHT22;2377;51.734;8.950;2023-12-04T01:34:49;-1.50;1.00
4727;DHT22;2377;51.734;8.950;2023-12-04T01:37:18;-1.50;1.00
4727;DHT22;2377;51.734;8.950;2023-12-04T01:39:45;-1.50;1.00
4727;DHT22;2377;51.734;8.950;2023-12-04T01:42:12;-1.50;1.00
4727;DHT22;2377;51.734;8.950;2023-12-04T01:44:39;-1.50;1.00
4727;DHT22;2377;51.734;8.950;2023-12-04T01:47:06;-1.40;1.00
4727;DHT22;2377;51.734;8.950;2023-12-04T01:49:34;-1.40;1.00
4727;DHT22;2377;51.734;8.950;2023-12-04T01:52:02;-1.50;1.00
4727;DHT22;2377;51.734;8.950;2023-12-04T01:54:32;-1.50;1.00
4727;DHT22;2377;51.734;8.950;2023-12-04T01:56:59;-1.50;1.00
4727;DHT22;2377;51.734;8.950;2023-12-04T01:59:28;-1.50;1.00
4727;DHT22;2377;51.734;8.950;2023-12-04T02:01:55;-1.50;1.00
4727;DHT22;2377;51.734;8.950;2023-12-04T02:04:22;-1.50;1.00
4727;DHT22;2377;51.734;8.950;2023-12-04T02:06:49;-1.40;1.00
4727;DHT22;2377;51.734;8.950;2023-12-04T02:09:17;-1.40;1.00
4727;DHT22;2377;51.734;8.950;2023-12-04T02:11:45;-1.40;1.00
4727;DHT22;2377;51.734;8.950;2023-12-04T02:14:12;-1.40;1.00
4727;DHT22;2377;51.734;8.950;2023-12-04T02:16:40;-1.40;1.00
4727;DHT22;2377;51.734;8.950;2023-12-04T02:19:12;-1.40;1.00
4727;DHT22;2377;51.734;8.950;2023-12-04T02:21:39;-1.40;1.00
4727;DHT22;2377;51.734;8.950;2023-12-04T02:24:09;-1.40;1.00
4727;DHT22;2377;51.734;8.950;2023-12-04T02:26:44;-1.40;1.00
4727;DHT22;2377;51.734;8.950;2023-12-04T02:29:28;-1.40;1.00
4727;DHT22;2377;51.734;8.950;2023-12-04T02:31:58;-1.40;1.00
4727;DHT22;2377;51.734;8.950;2023-12-04T02:34:32;-1.50;1.00
4727;DHT22;2377;51.734;8.950;2023-12-04T02:37:01;-1.50;1.00
4727;DHT22;2377;51.734;8.950;2023-12-04T02:39:31;-1.40;1.00
4727;DHT22;2377;51.734;8.950;2023-12-04T02:41:58;-1.40;1.00
4727;DHT22;2377;51.734;8.950;2023-12-04T02:44:25;-1.30;1.00
4727;DHT22;2377;51.734;8.950;2023-12-04T02:46:52;-1.30;1.00
4727;DHT22;2377;51.734;8.950;2023-12-04T02:49:19;-1.30;1.00
4727;DHT22;2377;51.734;8.950;2023-12-04T02:51:46;-1.30;1.00
4727;DHT22;2377;51.734;8.950;2023-12-04T02:54:13;-1.30;1.00
4727;DHT22;2377;51.734;8.950;2023-12-04T02:56:42;-1.30;1.00
4727;DHT22;2377;51.734;8.950;2023-12-04T02:59:09;-1.30;1.00
4727;DHT22;2377;51.734;8.950;2023-12-04T03:01:36;-1.30;1.00
4727;DHT22;2377;51.734;8.950;2023-12-04T03:04:03;-1.30;1.00
4727;DHT22;2377;51.734;8.950;2023-12-04T03:06:30;-1.30;1.00
4727;DHT22;2377;51.734;8.950;2023-12-04T03:08:58;-1.30;1.00
4727;DHT22;2377;51.734;8.950;2023-12-04T03:11:25;-1.30;1.00
4727;DHT22;2377;51.734;8.950;2023-12-04T03:13:53;-1.20;1.00
4727;DHT22;2377;51.734;8.950;2023-12-04T03:16:20;-1.10;1.00
4727;DHT22;2377;51.734;8.950;2023-12-04T03:18:48;-1.10;1.00
4727;DHT22;2377;51.734;8.950;2023-12-04T03:21:15;-1.20;1.00
4727;DHT22;2377;51.734;8.950;2023-12-04T03:23:42;-1.20;1.00
4727;DHT22;2377;51.734;8.950;2023-12-04T03:26:09;-1.20;1.00
4727;DHT22;2377;51.734;8.950;2023-12-04T03:28:37;-1.20;1.00
4727;DHT22;2377;51.734;8.950;2023-12-04T03:31:07;-1.20;1.00
4727;DHT22;2377;51.734;8.950;2023-12-04T03:33:34;-1.10;1.00
4727;DHT22;2377;51.734;8.950;2023-12-04T03:36:01;-1.20;1.00
4727;DHT22;2377;51.734;8.950;2023-12-04T03:38:29;-1.20;1.00
4727;DHT22;2377;51.734;8.950;2023-12-04T03:40:56;-1.20;1.00
4727;DHT22;2377;51.734;8.950;2023-12-04T03:43:23;-1.10;1.00
4727;DHT22;2377;51.734;8.950;2023-12-04T03:45:50;-1.10;1.00
4727;DHT22;2377;51.734;8.950;2023-12-04T03:48:18;-1.10;1.00
4727;DHT22;2377;51.734;8.950;2023-12-04T03:50:46;-1.10;1.00
4727;DHT22;2377;51.734;8.950;2023-12-04T03:53:13;-1.10;1.00
4727;DHT22;2377;51.734;8.950;2023-12-04T03:55:40;-1.00;1.00
4727;DHT22;2377;51.734;8.950;2023-12-04T03:58:07;-1.00;1.00
4727;DHT22;2377;51.734;8.950;2023-12-04T04:00:34;-1.00;1.00
4727;DHT22;2377;51.734;8.950;2023-12-04T04:03:01;-1.00;1.00
4727;DHT22;2377;51.734;8.950;2023-12-04T04:05:29;-1.00;1.00
4727;DHT22;2377;51.734;8.950;2023-12-04T04:07:59;-1.00;1.00
4727;DHT22;2377;51.734;8.950;2023-12-04T04:10:26;-1.10;1.00
4727;DHT22;2377;51.734;8.950;2023-12-04T04:12:53;-1.00;1.00
4727;DHT22;2377;51.734;8.950;2023-12-04T04:15:20;-1.00;1.00
4727;DHT22;2377;51.734;8.950;2023-12-04T04:17:47;-1.10;1.00
4727;DHT22;2377;51.734;8.950;2023-12-04T04:20:15;-1.00;1.00
4727;DHT22;2377;51.734;8.950;2023-12-04T04:22:43;-1.00;1.00
4727;DHT22;2377;51.734;8.950;2023-12-04T04:25:12;-1.00;1.00
4727;DHT22;2377;51.734;8.950;2023-12-04T04:27:39;-1.00;1.00
4727;DHT22;2377;51.734;8.950;2023-12-04T04:30:07;-1.00;1.00
4727;DHT22;2377;51.734;8.950;2023-12-04T04:32:34;-1.00;1.00
4727;DHT22;2377;51.734;8.950;2023-12-04T04:35:02;-1.00;1.00
4727;DHT22;2377;51.734;8.950;2023-12-04T04:37:29;-1.00;1.00
4727;DHT22;2377;51.734;8.950;2023-12-04T04:39:57;-1.00;1.00
4727;DHT22;2377;51.734;8.950;2023-12-04T04:42:27;-1.00;1.00
4727;DHT22;2377;51.734;8.950;2023-12-04T04:44:54;-1.00;1.00
4727;DHT22;2377;51.734;8.950;2023-12-04T04:47:22;-1.00;1.00
4727;DHT22;2377;51.734;8.950;2023-12-04T04:49:49;-1.00;1.00
4727;DHT22;2377;51.734;8.950;2023-12-04T04:52:16;-1.00;1.00
4727;DHT22;2377;51.734;8.950;2023-12-04T04:54:43;-1.00;1.00
4727;DHT22;2377;51.734;8.950;2023-12-04T04:57:11;-1.00;1.00
4727;DHT22;2377;51.734;8.950;2023-12-04T04:59:38;-1.00;1.00
4727;DHT22;2377;51.734;8.950;2023-12-04T05:02:05;-1.00;1.00
4727;DHT22;2377;51.734;8.950;2023-12-04T05:04:32;-1.00;1.00
4727;DHT22;2377;51.734;8.950;2023-12-04T05:06:59;-1.00;1.00
4727;DHT22;2377;51.734;8.950;2023-12-04T05:09:27;-1.00;1.00
4727;DHT22;2377;51.734;8.950;2023-12-04T05:11:54;-1.00;1.00
4727;DHT22;2377;51.734;8.950;2023-12-04T05:14:22;-1.00;1.00
4727;DHT22;2377;51.734;8.950;2023-12-04T05:16:49;-1.00;1.00
4727;DHT22;2377;51.734;8.950;2023-12-04T05:19:16;-1.00;1.00
4727;DHT22;2377;51.734;8.950;2023-12-04T05:21:43;-1.10;1.00
4727;DHT22;2377;51.734;8.950;2023-12-04T05:24:10;-1.10;1.00
4727;DHT22;2377;51.734;8.950;2023-12-04T05:26:37;-1.10;1.00
4727;DHT22;2377;51.734;8.950;2023-12-04T05:29:04;-1.10;1.00
4727;DHT22;2377;51.734;8.950;2023-12-04T05:31:33;-1.10;1.00
4727;DHT22;2377;51.734;8.950;2023-12-04T05:34:00;-1.10;1.00
4727;DHT22;2377;51.734;8.950;2023-12-04T05:36:27;-1.10;1.00
4727;DHT22;2377;51.734;8.950;2023-12-04T05:38:54;-1.10;1.00
4727;DHT22;2377;51.734;8.950;2023-12-04T05:41:22;-1.10;1.00
4727;DHT22;2377;51.734;8.950;2023-12-04T05:43:49;-1.10;1.00
4727;DHT22;2377;51.734;8.950;2023-12-04T05:46:16;-1.10;1.00
4727;DHT22;2377;51.734;8.950;2023-12-04T05:48:44;-1.10;1.00
4727;DHT22;2377;51.734;8.950;2023-12-04T05:51:11;-1.20;1.00
4727;DHT22;2377;51.734;8.950;2023-12-04T05:53:38;-1.10;1.00
4727;DHT22;2377;51.734;8.950;2023-12-04T05:56:06;-1.20;1.00
4727;DHT22;2377;51.734;8.950;2023-12-04T05:58:34;-1.20;1.00
4727;DHT22;2377;51.734;8.950;2023-12-04T06:01:02;-1.20;1.00
4727;DHT22;2377;51.734;8.950;2023-12-04T06:03:29;-1.20;1.00
4727;DHT22;2377;51.734;8.950;2023-12-04T06:05:58;-1.10;1.00
4727;DHT22;2377;51.734;8.950;2023-12-04T06:08:24;-1.20;1.00
4727;DHT22;2377;51.734;8.950;2023-12-04T06:10:51;-1.20;1.00
4727;DHT22;2377;51.734;8.950;2023-12-04T06:13:18;-1.20;1.00
4727;DHT22;2377;51.734;8.950;2023-12-04T06:15:45;-1.10;1.00
4727;DHT22;2377;51.734;8.950;2023-12-04T06:18:12;-1.10;1.00
4727;DHT22;2377;51.734;8.950;2023-12-04T06:20:39;-1.10;1.00
4727;DHT22;2377;51.734;8.950;2023-12-04T06:23:08;-1.10;1.00
4727;DHT22;2377;51.734;8.950;2023-12-04T06:25:36;-1.10;1.00
4727;DHT22;2377;51.734;8.950;2023-12-04T06:28:04;-1.10;1.00
4727;DHT22;2377;51.734;8.950;2023-12-04T06:30:32;-1.10;1.00
4727;DHT22;2377;51.734;8.950;2023-12-04T06:33:00;-1.10;1.00
4727;DHT22;2377;51.734;8.950;2023-12-04T06:35:28;-1.10;1.00
4727;DHT22;2377;51.734;8.950;2023-12-04T06:37:59;-1.10;1.00
4727;DHT22;2377;51.734;8.950;2023-12-04T06:40:34;-1.10;1.00
4727;DHT22;2377;51.734;8.950;2023-12-04T06:43:03;-1.10;1.00
4727;DHT22;2377;51.734;8.950;2023-12-04T06:45:30;-1.10;1.00
4727;DHT22;2377;51.734;8.950;2023-12-04T06:47:59;-1.10;99.90
4727;DHT22;2377;51.734;8.950;2023-12-04T06:50:27;-1.10;99.90
4727;DHT22;2377;51.734;8.950;2023-12-04T06:52:54;-1.10;99.90
4727;DHT22;2377;51.734;8.950;2023-12-04T06:55:21;-1.10;99.90
4727;DHT22;2377;51.734;8.950;2023-12-04T06:57:50;-1.20;99.90
4727;DHT22;2377;51.734;8.950;2023-12-04T07:00:18;-1.20;99.90
4727;DHT22;2377;51.734;8.950;2023-12-04T07:02:46;-1.20;99.90
4727;DHT22;2377;51.734;8.950;2023-12-04T07:05:13;-1.20;99.90
4727;DHT22;2377;51.734;8.950;2023-12-04T07:07:40;-1.30;99.90
4727;DHT22;2377;51.734;8.950;2023-12-04T07:10:08;-1.30;99.90
4727;DHT22;2377;51.734;8.950;2023-12-04T07:12:40;-1.30;99.90
4727;DHT22;2377;51.734;8.950;2023-12-04T07:15:09;-1.30;99.90
4727;DHT22;2377;51.734;8.950;2023-12-04T07:17:36;-1.30;99.90
4727;DHT22;2377;51.734;8.950;2023-12-04T07:20:05;-1.30;99.90
4727;DHT22;2377;51.734;8.950;2023-12-04T07:22:33;-1.30;99.90
4727;DHT22;2377;51.734;8.950;2023-12-04T07:25:00;-1.30;99.90
4727;DHT22;2377;51.734;8.950;2023-12-04T07:27:28;-1.30;99.90
4727;DHT22;2377;51.734;8.950;2023-12-04T07:29:55;-1.40;99.90
4727;DHT22;2377;51.734;8.950;2023-12-04T07:32:23;-1.40;99.90
4727;DHT22;2377;51.734;8.950;2023-12-04T07:34:50;-1.40;99.90
4727;DHT22;2377;51.734;8.950;2023-12-04T07:37:17;-1.30;99.90
4727;DHT22;2377;51.734;8.950;2023-12-04T07:39:44;-1.30;99.90
4727;DHT22;2377;51.734;8.950;2023-12-04T07:42:12;-1.30;99.90
4727;DHT22;2377;51.734;8.950;2023-12-04T07:44:39;-1.30;99.90
4727;DHT22;2377;51.734;8.950;2023-12-04T07:47:06;-1.30;99.90
4727;DHT22;2377;51.734;8.950;2023-12-04T07:49:34;-1.30;99.90
4727;DHT22;2377;51.734;8.950;2023-12-04T07:52:02;-1.20;99.90
4727;DHT22;2377;51.734;8.950;2023-12-04T07:54:29;-1.20;99.90
4727;DHT22;2377;51.734;8.950;2023-12-04T07:56:56;-1.10;99.90
4727;DHT22;2377;51.734;8.950;2023-12-04T07:59:23;-1.10;99.90
4727;DHT22;2377;51.734;8.950;2023-12-04T08:01:51;-1.10;99.90
4727;DHT22;2377;51.734;8.950;2023-12-04T08:04:18;-1.10;99.90
4727;DHT22;2377;51.734;8.950;2023-12-04T08:06:46;-1.00;99.90
4727;DHT22;2377;51.734;8.950;2023-12-04T08:09:13;-1.10;99.90
4727;DHT22;2377;51.734;8.950;2023-12-04T08:11:40;-1.10;99.90
4727;DHT22;2377;51.734;8.950;2023-12-04T08:14:07;-1.10;99.90
4727;DHT22;2377;51.734;8.950;2023-12-04T08:16:35;-1.10;99.90
4727;DHT22;2377;51.734;8.950;2023-12-04T08:19:02;-1.10;99.90
4727;DHT22;2377;51.734;8.950;2023-12-04T08:21:29;-1.10;99.90
4727;DHT22;2377;51.734;8.950;2023-12-04T08:23:59;-1.10;99.90
4727;DHT22;2377;51.734;8.950;2023-12-04T08:26:26;-1.10;99.90
4727;DHT22;2377;51.734;8.950;2023-12-04T08:28:53;-1.00;99.90
4727;DHT22;2377;51.734;8.950;2023-12-04T08:31:20;-1.00;99.90
4727;DHT22;2377;51.734;8.950;2023-12-04T08:33:47;-1.00;99.90
4727;DHT22;2377;51.734;8.950;2023-12-04T08:36:14;-1.00;99.90
4727;DHT22;2377;51.734;8.950;2023-12-04T08:38:41;-1.00;99.90
4727;DHT22;2377;51.734;8.950;2023-12-04T08:41:10;-1.00;99.90
4727;DHT22;2377;51.734;8.950;2023-12-04T08:43:37;-1.00;99.90
4727;DHT22;2377;51.734;8.950;2023-12-04T08:46:04;-1.00;99.90
4727;DHT22;2377;51.734;8.950;2023-12-04T08:48:33;-1.00;99.90
4727;DHT22;2377;51.734;8.950;2023-12-04T08:51:00;-1.00;99.90
4727;DHT22;2377;51.734;8.950;2023-12-04T08:53:27;-1.10;99.90
4727;DHT22;2377;51.734;8.950;2023-12-04T08:55:54;-1.00;99.90
4727;DHT22;2377;51.734;8.950;2023-12-04T08:58:24;-1.00;99.90
4727;DHT22;2377;51.734;8.950;2023-12-04T09:00:51;-1.00;99.90
4727;DHT22;2377;51.734;8.950;2023-12-04T09:03:18;-1.00;99.90
4727;DHT22;2377;51.734;8.950;2023-12-04T09:05:46;-1.00;99.90
4727;DHT22;2377;51.734;8.950;2023-12-04T09:08:15;-0.90;99.90
4727;DHT22;2377;51.734;8.950;2023-12-04T09:10:42;-0.90;99.90
4727;DHT22;2377;51.734;8.950;2023-12-04T09:13:10;-0.90;99.90
4727;DHT22;2377;51.734;8.950;2023-12-04T09:15:38;-0.80;99.90
4727;DHT22;2377;51.734;8.950;2023-12-04T09:18:05;-0.80;99.90
4727;DHT22;2377;51.734;8.950;2023-12-04T09:20:32;-0.80;99.90
4727;DHT22;2377;51.734;8.950;2023-12-04T09:22:59;-0.80;99.90
4727;DHT22;2377;51.734;8.950;2023-12-04T09:25:26;-0.80;99.90
4727;DHT22;2377;51.734;8.950;2023-12-04T09:27:53;-0.80;99.90
4727;DHT22;2377;51.734;8.950;2023-12-04T09:30:20;-0.80;99.90
4727;DHT22;2377;51.734;8.950;2023-12-04T09:32:49;-0.70;99.90
4727;DHT22;2377;51.734;8.950;2023-12-04T09:35:16;-0.70;99.90
4727;DHT22;2377;51.734;8.950;2023-12-04T09:37:43;-0.60;99.90
4727;DHT22;2377;51.734;8.950;2023-12-04T09:40:11;-0.60;99.90
4727;DHT22;2377;51.734;8.950;2023-12-04T09:42:39;-0.50;99.90
4727;DHT22;2377;51.734;8.950;2023-12-04T09:45:07;-0.50;99.90
4727;DHT22;2377;51.734;8.950;2023-12-04T09:47:36;-0.40;99.90
4727;DHT22;2377;51.734;8.950;2023-12-04T09:50:06;-0.30;99.90
4727;DHT22;2377;51.734;8.950;2023-12-04T09:52:34;-0.30;99.90
4727;DHT22;2377;51.734;8.950;2023-12-04T09:55:02;-0.20;99.90
4727;DHT22;2377;51.734;8.950;2023-12-04T09:57:31;-0.20;99.90
4727;DHT22;2377;51.734;8.950;2023-12-04T10:00:00;-0.10;99.90
4727;DHT22;2377;51.734;8.950;2023-12-04T10:02:30;-0.10;99.90
4727;DHT22;2377;51.734;8.950;2023-12-04T10:04:58;-0.10;99.90
4727;DHT22;2377;51.734;8.950;2023-12-04T10:07:27;-0.20;99.90
4727;DHT22;2377;51.734;8.950;2023-12-04T10:09:54;-0.10;99.90
4727;DHT22;2377;51.734;8.950;2023-12-04T10:12:21;-0.10;99.90
4727;DHT22;2377;51.734;8.950;2023-12-04T10:15:03;-0.10;99.90
4727;DHT22;2377;51.734;8.950;2023-12-04T10:17:36;-0.10;99.90
4727;DHT22;2377;51.734;8.950;2023-12-04T10:20:05;-0.10;99.90
4727;DHT22;2377;51.734;8.950;2023-12-04T10:22:39;-0.10;99.90
4727;DHT22;2377;51.734;8.950;2023-12-04T10:25:16;-0.10;99.90
4727;DHT22;2377;51.734;8.950;2023-12-04T10:27:44;-0.20;99.90
4727;DHT22;2377;51.734;8.950;2023-12-04T10:30:22;-0.20;99.90
4727;DHT22;2377;51.734;8.950;2023-12-04T10:32:54;-0.10;99.90
4727;DHT22;2377;51.734;8.950;2023-12-04T10:35:22;-0.10;99.90
4727;DHT22;2377;51.734;8.950;2023-12-04T10:37:53;-0.10;99.90
4727;DHT22;2377;51.734;8.950;2023-12-04T10:40:24;-0.10;99.90
4727;DHT22;2377;51.734;8.950;2023-12-04T10:43:10;-0.10;99.90
4727;DHT22;2377;51.734;8.950;2023-12-04T10:45:39;-0.10;99.90
4727;DHT22;2377;51.734;8.950;2023-12-04T10:48:08;0.00;99.90
4727;DHT22;2377;51.734;8.950;2023-12-04T10:50:37;0.00;99.90
4727;DHT22;2377;51.734;8.950;2023-12-04T10:53:06;0.00;99.90
4727;DHT22;2377;51.734;8.950;2023-12-04T10:55:35;0.00;99.90
4727;DHT22;2377;51.734;8.950;2023-12-04T10:58:05;0.00;99.90
4727;DHT22;2377;51.734;8.950;2023-12-04T11:00:35;0.00;99.90
4727;DHT22;2377;51.734;8.950;2023-12-04T11:03:07;0.00;99.90
4727;DHT22;2377;51.734;8.950;2023-12-04T11:05:37;0.00;99.90
4727;DHT22;2377;51.734;8.950;2023-12-04T11:08:09;0.00;99.90
4727;DHT22;2377;51.734;8.950;2023-12-04T11:10:43;0.00;99.90
4727;DHT22;2377;51.734;8.950;2023-12-04T11:13:17;0.00;99.90
4727;DHT22;2377;51.734;8.950;2023-12-04T11:15:49;0.00;99.90
4727;DHT22;2377;51.734;8.950;2023-12-04T11:18:23;0.00;99.90
4727;DHT22;2377;51.734;8.950;2023-12-04T11:20:54;0.00;99.90
4727;DHT22;2377;51.734;8.950;2023-12-04T11:23:25;0.00;99.90
4727;DHT22;2377;51.734;8.950;2023-12-04T11:25:53;0.00;99.90
4727;DHT22;2377;51.734;8.950;2023-12-04T11:28:21;0.00;99.90
4727;DHT22;2377;51.734;8.950;2023-12-04T11:30:49;0.10;99.90
4727;DHT22;2377;51.734;8.950;2023-12-04T11:33:18;0.10;99.90
4727;DHT22;2377;51.734;8.950;2023-12-04T11:35:46;0.10;99.90
4727;DHT22;2377;51.734;8.950;2023-12-04T11:38:13;0.10;99.90
4727;DHT22;2377;51.734;8.950;2023-12-04T11:40:43;0.10;99.90
4727;DHT22;2377;51.734;8.950;2023-12-04T11:43:24;0.10;99.90
4727;DHT22;2377;51.734;8.950;2023-12-04T11:45:52;0.00;99.90
4727;DHT22;2377;51.734;8.950;2023-12-04T11:48:22;0.10;99.90
4727;DHT22;2377;51.734;8.950;2023-12-04T11:50:51;0.00;99.90
4727;DHT22;2377;51.734;8.950;2023-12-04T11:53:19;0.00;99.90
4727;DHT22;2377;51.734;8.950;2023-12-04T11:55:48;0.00;99.90
4727;DHT22;2377;51.734;8.950;2023-12-04T11:58:16;0.10;99.90
4727;DHT22;2377;51.734;8.950;2023-12-04T12:00:43;0.00;99.90
4727;DHT22;2377;51.734;8.950;2023-12-04T12:03:14;0.10;99.90
4727;DHT22;2377;51.734;8.950;2023-12-04T12:05:41;0.10;99.90
4727;DHT22;2377;51.734;8.950;2023-12-04T12:08:09;0.10;99.90
4727;DHT22;2377;51.734;8.950;2023-12-04T12:10:37;0.10;99.90
4727;DHT22;2377;51.734;8.950;2023-12-04T12:13:05;0.10;99.90
4727;DHT22;2377;51.734;8.950;2023-12-04T12:15:33;0.10;99.90
4727;DHT22;2377;51.734;8.950;2023-12-04T12:18:00;0.10;99.90
4727;DHT22;2377;51.734;8.950;2023-12-04T12:20:27;0.10;99.90
4727;DHT22;2377;51.734;8.950;2023-12-04T12:22:54;0.10;99.90
4727;DHT22;2377;51.734;8.950;2023-12-04T12:25:21;0.10;99.90
4727;DHT22;2377;51.734;8.950;2023-12-04T12:27:51;0.10;99.90
4727;DHT22;2377;51.734;8.950;2023-12-04T12:30:20;0.10;99.90
4727;DHT22;2377;51.734;8.950;2023-12-04T12:32:47;0.10;99.90
4727;DHT22;2377;51.734;8.950;2023-12-04T12:35:16;0.10;99.90
4727;DHT22;2377;51.734;8.950;2023-12-04T12:37:43;0.10;99.90
4727;DHT22;2377;51.734;8.950;2023-12-04T12:40:11;0.00;99.90
4727;DHT22;2377;51.734;8.950;2023-12-04T12:42:38;0.10;99.90
4727;DHT22;2377;51.734;8.950;2023-12-04T12:45:09;0.10;99.90
4727;DHT22;2377;51.734;8.950;2023-12-04T12:47:40;0.10;99.90
4727;DHT22;2377;51.734;8.950;2023-12-04T12:50:09;0.10;99.90
4727;DHT22;2377;51.734;8.950;2023-12-04T12:52:39;0.10;99.90
4727;DHT22;2377;51.734;8.950;2023-12-04T12:55:06;0.10;99.90
4727;DHT22;2377;51.734;8.950;2023-12-04T12:57:35;0.10;99.90
4727;DHT22;2377;51.734;8.950;2023-12-04T13:00:02;0.10;99.90
4727;DHT22;2377;51.734;8.950;2023-12-04T13:02:35;0.10;99.90
4727;DHT22;2377;51.734;8.950;2023-12-04T13:05:05;0.10;99.90
4727;DHT22;2377;51.734;8.950;2023-12-04T13:07:33;0.00;99.90
4727;DHT22;2377;51.734;8.950;2023-12-04T13:10:00;0.10;99.90
4727;DHT22;2377;51.734;8.950;2023-12-04T13:12:30;0.10;99.90
4727;DHT22;2377;51.734;8.950;2023-12-04T13:14:57;0.10;99.90
4727;DHT22;2377;51.734;8.950;2023-12-04T13:17:24;0.10;99.90
4727;DHT22;2377;51.734;8.950;2023-12-04T13:19:51;0.10;99.90
4727;DHT22;2377;51.734;8.950;2023-12-04T13:22:20;0.10;99.90
4727;DHT22;2377;51.734;8.950;2023-12-04T13:24:47;0.10;99.90
4727;DHT22;2377;51.734;8.950;2023-12-04T13:27:14;0.10;99.90
4727;DHT22;2377;51.734;8.950;2023-12-04T13:29:41;0.10;99.90
4727;DHT22;2377;51.734;8.950;2023-12-04T13:32:08;0.10;99.90
4727;DHT22;2377;51.734;8.950;2023-12-04T13:34:35;0.10;99.90
4727;DHT22;2377;51.734;8.950;2023-12-04T13:37:02;0.10;99.90
4727;DHT22;2377;51.734;8.950;2023-12-04T13:39:31;0.10;99.90
4727;DHT22;2377;51.734;8.950;2023-12-04T13:42:13;0.10;99.90
4727;DHT22;2377;51.734;8.950;2023-12-04T13:44:58;0.10;99.90
4727;DHT22;2377;51.734;8.950;2023-12-04T13:47:26;0.00;99.90
4727;DHT22;2377;51.734;8.950;2023-12-04T13:49:53;0.10;99.90
4727;DHT22;2377;51.734;8.950;2023-12-04T13:52:21;0.10;99.90
4727;DHT22;2377;51.734;8.950;2023-12-04T13:54:50;0.10;99.90
4727;DHT22;2377;51.734;8.950;2023-12-04T13:57:20;0.10;99.90
4727;DHT22;2377;51.734;8.950;2023-12-04T13:59:48;0.10;99.90
4727;DHT22;2377;51.734;8.950;2023-12-04T14:02:18;0.10;99.90
4727;DHT22;2377;51.734;8.950;2023-12-04T14:04:45;0.10;99.90
4727;DHT22;2377;51.734;8.950;2023-12-04T14:07:12;0.10;99.90
4727;DHT22;2377;51.734;8.950;2023-12-04T14:09:39;0.10;99.90
4727;DHT22;2377;51.734;8.950;2023-12-04T14:12:08;0.10;99.90
4727;DHT22;2377;51.734;8.950;2023-12-04T14:14:36;0.10;99.90
4727;DHT22;2377;51.734;8.950;2023-12-04T14:17:03;0.10;99.90
4727;DHT22;2377;51.734;8.950;2023-12-04T14:19:33;0.10;99.90
4727;DHT22;2377;51.734;8.950;2023-12-04T14:22:00;0.00;99.90
4727;DHT22;2377;51.734;8.950;2023-12-04T14:24:27;0.10;99.90
4727;DHT22;2377;51.734;8.950;2023-12-04T14:26:55;0.10;99.90
4727;DHT22;2377;51.734;8.950;2023-12-04T14:29:23;0.10;99.90
4727;DHT22;2377;51.734;8.950;2023-12-04T14:31:50;0.10;99.90
4727;DHT22;2377;51.734;8.950;2023-12-04T14:34:19;0.10;99.90
4727;DHT22;2377;51.734;8.950;2023-12-04T14:36:46;0.10;99.90
4727;DHT22;2377;51.734;8.950;2023-12-04T14:39:13;0.10;99.90
4727;DHT22;2377;51.734;8.950;2023-12-04T14:41:43;0.10;99.90
4727;DHT22;2377;51.734;8.950;2023-12-04T14:44:10;0.10;99.90
4727;DHT22;2377;51.734;8.950;2023-12-04T14:46:38;0.10;99.90
4727;DHT22;2377;51.734;8.950;2023-12-04T14:49:05;0.00;99.90
4727;DHT22;2377;51.734;8.950;2023-12-04T14:51:32;0.00;99.90
4727;DHT22;2377;51.734;8.950;2023-12-04T14:53:59;0.00;99.90
4727;DHT22;2377;51.734;8.950;2023-12-04T14:56:41;0.00;99.90
4727;DHT22;2377;51.734;8.950;2023-12-04T14:59:37;0.00;99.90
4727;DHT22;2377;51.734;8.950;2023-12-04T15:02:22;0.00;99.90
4727;DHT22;2377;51.734;8.950;2023-12-04T15:05:09;-0.10;99.90
4727;DHT22;2377;51.734;8.950;2023-12-04T15:07:50;0.00;99.90
4727;DHT22;2377;51.734;8.950;2023-12-04T15:10:47;0.00;99.90
4727;DHT22;2377;51.734;8.950;2023-12-04T15:13:47;0.00;99.90
4727;DHT22;2377;51.734;8.950;2023-12-04T15:16:21;0.00;99.90
4727;DHT22;2377;51.734;8.950;2023-12-04T15:18:58;0.00;99.90
4727;DHT22;2377;51.734;8.950;2023-12-04T15:21:52;0.00;99.90
4727;DHT22;2377;51.734;8.950;2023-12-04T15:24:20;0.00;99.90
4727;DHT22;2377;51.734;8.950;2023-12-04T15:26:46;-0.10;99.90
4727;DHT22;2377;51.734;8.950;2023-12-04T15:29:13;-0.10;99.90
4727;DHT22;2377;51.734;8.950;2023-12-04T15:31:43;-0.10;99.90
4727;DHT22;2377;51.734;8.950;2023-12-04T15:34:11;-0.10;99.90
4727;DHT22;2377;51.734;8.950;2023-12-04T15:36:38;-0.10;99.90
4727;DHT22;2377;51.734;8.950;2023-12-04T15:39:05;-0.10;99.90
4727;DHT22;2377;51.734;8.950;2023-12-04T15:41:31;-0.10;99.90
4727;DHT22;2377;51.734;8.950;2023-12-04T15:43:58;0.00;99.90
4727;DHT22;2377;51.734;8.950;2023-12-04T15:46:24;0.00;99.90
4727;DHT22;2377;51.734;8.950;2023-12-04T15:48:52;0.00;99.90
4727;DHT22;2377;51.734;8.950;2023-12-04T15:51:20;0.00;99.90
4727;DHT22;2377;51.734;8.950;2023-12-04T15:53:47;0.00;99.90
4727;DHT22;2377;51.734;8.950;2023-12-04T15:56:14;0.00;99.90
4727;DHT22;2377;51.734;8.950;2023-12-04T15:58:41;0.00;99.90
4727;DHT22;2377;51.734;8.950;2023-12-04T16:01:07;0.00;99.90
4727;DHT22;2377;51.734;8.950;2023-12-04T16:03:34;0.00;99.90
4727;DHT22;2377;51.734;8.950;2023-12-04T16:06:00;-0.10;99.90
4727;DHT22;2377;51.734;8.950;2023-12-04T16:08:29;-0.10;99.90
4727;DHT22;2377;51.734;8.950;2023-12-04T16:10:56;-0.10;99.90
4727;DHT22;2377;51.734;8.950;2023-12-04T16:13:23;-0.10;99.90
4727;DHT22;2377;51.734;8.950;2023-12-04T16:15:50;-0.10;99.90
4727;DHT22;2377;51.734;8.950;2023-12-04T16:18:17;-0.10;99.90
4727;DHT22;2377;51.734;8.950;2023-12-04T16:20:44;-0.10;99.90